Pleasant Hill, CA (94523)

8:21 AM PST on February 07, 2016 (GMT -0800)
Pleasant Hill Road | | Change Station
CLOSE
Current Station
Personal Weather Station
Location: Pleasant Hill, CA
Elevation: 89 ft
Nearby Weather Stations

Elev 89 ft 37.95 °N, 122.08 °W | Updated 14 seconds ago

Clear
Clear
45.0 °F
Feels Like 45 °F
N
0.0
Wind Variable Wind from South
Gusts 0.0 mph

Today
High -- | Low -- °F
--% Chance of Precip.
Yesterday
High -- | Low -- °F
Precip. -- in
Pressure 30.27 in
Visibility 10.0 miles
Clouds Clear
Windchill 45 °F
Dew Point 40 °F
Humidity 84%
Rainfall 0.00 in
Snow Depth Not available.
7:07 AM 5:37 PM
Waning Crescent, 1% visible
METAR KCCR 071553Z 00000KT 10SM CLR 07/04 A3031 RMK AO2 SLP248 T00670039
Pressure 30.27 in
Visibility 10.0 miles
Clouds Clear
Windchill 45 °F
Dew Point 40 °F
Humidity 84%
Rainfall 0.00 in
Snow Depth Not available.
7:07 AM 5:37 PM
Waning Crescent, 1% visible
METAR KCCR 071553Z 00000KT 10SM CLR 07/04 A3031 RMK AO2 SLP248 T00670039

10-Day Weather Forecast

Almanac

Astronomy

Feb. 07, 2016 Rise Set
Actual Time
Civil Twilight
Nautical Twilight
Astronomical Twilight
Moon
Length of Visible Light
Length of Day
Tomorrow will be .
, % of the Moon is Illuminated

Today's Extremes

State Highs State Lows

Community

WunderPhotos

Upload Photos

1,891,221 photos uploaded!

WunderBlog® & News

Nearby

Air Quality

  Air Quality AQ Index Pollutant
Not available.

Snow Depth

Station Depth Elevation

Earthquake Activity

City Distance Mag. Time & Date
Minimum magnitude displayed is 2.5.

Coastal Water Temperatures

Place Temperature

Stations

Nearby Weather Stations

Station Location Temp. Windchill Dew Point Humidity Wind Precip. Elev Updated Type
                   

Watches & Warnings

There are currently no watches in effect.